This is the latest recevied weather packets stored in our database for station/object n3uvr. If no packets are shown the sender has not sent any weather packets the latest 10 day(s).
| Time | Temp. | Humidity | Pressure | Rain* | Wind** | Luminosity | Snow |
|---|---|---|---|---|---|---|---|
| 1777152794 | 5.56° C | 88% | 1012.8 hPa | 1.78 mm | - | 12 W/m² | - |
| 1777152191 | 5.56° C | 88% | 1012.2 hPa | 1.78 mm | - | 18 W/m² | - |
| 1777150984 | 5.56° C | 88% | 1012.2 hPa | 1.02 mm | - | 26 W/m² | - |
| 1777150382 | 5.56° C | 88% | 1012.5 hPa | 1.27 mm | - | 21 W/m² | - |
| 1777149794 | 5.56° C | 88% | 1012.7 hPa | 1.27 mm | - | 21 W/m² | - |
| 1777147922 | 5.56° C | 88% | 1012.5 hPa | 1.27 mm | - | 49 W/m² | - |
| 1777145538 | 5.56° C | 88% | 1012.6 hPa | 1.78 mm | - | 42 W/m² | - |
| 1777144317 | 5.56° C | 88% | 1013 hPa | 1.78 mm | - | 47 W/m² | - |
| 1777143728 | 5.56° C | 87% | 1013.2 hPa | 2.03 mm | - | 62 W/m² | - |
| 1777143132 | 5.56° C | 87% | 1013.3 hPa | 2.03 mm | - | 51 W/m² | - |
| 1777142526 | 5.56° C | 88% | 1013.2 hPa | 2.03 mm | - | 62 W/m² | - |
| 1777141925 | 5.56° C | 88% | 1013.4 hPa | 1.78 mm | - | 51 W/m² | - |
| 1777140737 | 5.56° C | 88% | 1013.6 hPa | 1.52 mm | - | 69 W/m² | - |
| 1777138327 | 5.56° C | 88% | 1014.2 hPa | 2.54 mm | - | 79 W/m² | - |
| 1777135955 | 6.67° C | 88% | 1014.9 hPa | 2.54 mm | - | 30 W/m² | - |
| 1777134753 | 6.67° C | 87% | 1014 hPa | 1.78 mm | - | 51 W/m² | - |
| 1777134154 | 6.67° C | 87% | 1013.5 hPa | 2.29 mm | - | 54 W/m² | - |
| 1777133565 | 6.67° C | 87% | 1013.4 hPa | 2.79 mm | - | 53 W/m² | - |
| 1777132957 | 6.67° C | 88% | 1013.5 hPa | 2.29 mm | - | 88 W/m² | - |
| 1777131719 | 7.22° C | 88% | 1014 hPa | 2.29 mm | - | 25 W/m² | - |
| 1777131133 | 6.67° C | 88% | 1013.8 hPa | 2.79 mm | - | 74 W/m² | - |
| 1777129944 | 6.67° C | 87% | 1014.4 hPa | 2.54 mm | - | 25 W/m² | - |
| 1777129321 | 6.67° C | 88% | 1013.8 hPa | 2.79 mm | - | 44 W/m² | - |
| 1777128745 | 6.67° C | 88% | 1013.7 hPa | 2.54 mm | - | 40 W/m² | - |
| 1777126328 | 7.22° C | 87% | 1013.6 hPa | 1.52 mm | - | 33 W/m² | - |
* Rain latest hour (hover to see other rain measurements)
** Current wind speed in m/s (hover to see current wind gust speed)